Time;durP1;ratioP1;P1;durP2;ratioP2;P2;SDS_P1;SDS_P2;PMS_P1;PMS_P2;Temp;Humidity;BMP_temperature;BMP_pressure;BME280_temperature;BME280_humidity;BME280_pressure;Samples;Min_cycle;Max_cycle;Signal;HPM_P1;HPM_P2
2022/01/05 00:00:40;;;;;;;357.27;249.23;;;;;;;24.39;40.94;101280.66;5024508;28;20042;-42
2022/01/05 00:03:09;;;;;;;356.20;246.68;;;;;;;24.32;41.17;101281.44;5024097;28;20032;-43
2022/01/05 00:05:38;;;;;;;341.95;242.88;;;;;;;24.36;40.96;101283.22;5023913;28;20045;-43
2022/01/05 00:08:06;;;;;;;356.50;250.57;;;;;;;24.38;40.97;101283.28;5023949;28;20045;-42
2022/01/05 00:10:35;;;;;;;339.15;244.63;;;;;;;24.37;40.99;101287.63;5024252;28;20051;-43
2022/01/05 00:13:03;;;;;;;335.45;239.43;;;;;;;24.40;40.93;101297.31;5024023;28;20025;-43
2022/01/05 00:15:32;;;;;;;358.90;249.57;;;;;;;24.34;41.33;101295.44;5024058;28;20041;-43
2022/01/05 00:18:01;;;;;;;351.23;240.80;;;;;;;24.38;40.93;101296.38;5024060;28;20390;-43
2022/01/05 00:20:30;;;;;;;359.30;249.95;;;;;;;24.38;40.92;101301.63;5023982;28;20033;-43
2022/01/05 00:22:59;;;;;;;358.80;251.45;;;;;;;24.36;41.20;101313.84;5023524;28;20091;-43
2022/01/05 00:25:27;;;;;;;346.98;244.48;;;;;;;24.35;41.25;101317.31;5022423;28;20033;-43
2022/01/05 00:27:56;;;;;;;355.67;250.93;;;;;;;24.25;41.42;101313.63;5022943;28;20029;-42
2022/01/05 00:30:25;;;;;;;346.02;249.80;;;;;;;24.25;41.13;101301.41;5011524;28;20034;-43
2022/01/05 00:32:53;;;;;;;355.80;251.38;;;;;;;24.32;40.84;101312.91;4986780;28;20030;-43
2022/01/05 00:35:22;;;;;;;355.88;253.07;;;;;;;24.23;41.09;101302.25;5004379;28;20041;-44
2022/01/05 00:37:50;;;;;;;358.33;249.02;;;;;;;24.25;40.97;101300.53;5003076;28;20045;-45
2022/01/05 00:40:19;;;;;;;361.33;251.60;;;;;;;24.21;41.05;101302.22;5003809;28;20034;-49
2022/01/05 00:42:47;;;;;;;365.05;255.05;;;;;;;24.29;40.82;101307.59;5003915;28;20081;-44
2022/01/05 00:45:16;;;;;;;362.83;255.65;;;;;;;24.24;40.95;101314.50;5002629;28;20117;-44
2022/01/05 00:47:45;;;;;;;358.40;258.20;;;;;;;24.24;40.83;101310.13;5003930;28;20034;-44
2022/01/05 00:50:13;;;;;;;361.35;256.55;;;;;;;24.24;41.14;101306.63;5003999;28;20032;-47
2022/01/05 00:52:42;;;;;;;365.65;259.05;;;;;;;24.21;40.95;101310.09;5003814;28;20036;-44
2022/01/05 00:55:14;;;;;;;366.80;256.33;;;;;;;24.15;41.36;101309.97;5003654;28;20030;-44
2022/01/05 00:57:43;;;;;;;371.50;260.42;;;;;;;24.17;40.96;101310.00;5004253;28;20057;-45
2022/01/05 01:00:11;;;;;;;369.10;259.08;;;;;;;24.15;41.03;101307.34;5003966;28;20463;-44
2022/01/05 01:02:40;;;;;;;365.92;259.48;;;;;;;24.14;40.98;101299.47;5006011;28;20498;-44
2022/01/05 01:05:09;;;;;;;371.45;260.42;;;;;;;24.10;41.36;101291.56;5007477;28;20064;-43
2022/01/05 01:07:37;;;;;;;365.88;257.65;;;;;;;24.16;41.08;101293.38;5007905;28;20036;-44
2022/01/05 01:10:06;;;;;;;366.83;260.17;;;;;;;24.17;41.07;101292.53;5008053;28;20040;-44
2022/01/05 01:12:35;;;;;;;366.48;257.35;;;;;;;24.21;40.78;101301.31;5007833;28;20030;-44
2022/01/05 01:15:06;;;;;;;353.58;257.80;;;;;;;24.11;41.28;101298.56;5007748;28;20034;-44
2022/01/05 01:17:35;;;;;;;358.17;257.67;;;;;;;24.09;41.14;101288.88;5007895;28;20037;-42
2022/01/05 01:20:03;;;;;;;372.20;262.25;;;;;;;24.16;40.95;101293.38;5007718;28;20034;-43
2022/01/05 01:22:33;;;;;;;372.70;261.02;;;;;;;24.20;41.04;101295.22;5007229;28;20435;-44
2022/01/05 01:25:02;;;;;;;360.33;259.15;;;;;;;24.13;40.77;101293.34;5006259;28;20057;-43
2022/01/05 01:27:30;;;;;;;378.00;265.40;;;;;;;24.16;41.17;101300.38;5007330;28;20387;-43
2022/01/05 01:29:59;;;;;;;378.20;264.95;;;;;;;24.14;41.13;101292.47;5007258;28;20069;-44
2022/01/05 01:32:27;;;;;;;362.73;262.67;;;;;;;24.15;40.87;101296.00;5007358;28;20091;-44
2022/01/05 01:34:56;;;;;;;366.25;264.33;;;;;;;24.09;40.79;101292.41;5007387;28;20037;-44
2022/01/05 01:37:25;;;;;;;381.77;270.48;;;;;;;24.00;41.40;101294.84;5007699;28;20018;-44
2022/01/05 01:39:53;;;;;;;375.33;268.92;;;;;;;23.97;41.07;101295.69;5007545;28;20053;-43
2022/01/05 01:42:22;;;;;;;373.00;263.88;;;;;;;24.05;41.17;101300.19;5007245;28;20387;-45
2022/01/05 01:44:50;;;;;;;388.92;271.70;;;;;;;24.05;41.27;101310.69;5006769;28;20036;-43
2022/01/05 01:47:19;;;;;;;379.52;264.58;;;;;;;24.10;41.25;101314.25;5006843;28;20064;-43
2022/01/05 01:49:48;;;;;;;384.58;270.83;;;;;;;24.07;40.98;101315.09;5007003;28;20042;-43
2022/01/05 01:52:16;;;;;;;383.67;268.27;;;;;;;24.15;40.56;101315.22;5005673;28;21146;-43
2022/01/05 01:54:46;;;;;;;379.65;266.58;;;;;;;24.11;40.92;101324.78;5007081;28;20033;-43
2022/01/05 01:57:14;;;;;;;388.80;273.63;;;;;;;24.01;41.25;101337.66;5006985;28;20037;-43
2022/01/05 01:59:44;;;;;;;390.27;275.05;;;;;;;24.03;41.03;101325.50;5005714;28;20036;-43
2022/01/05 02:02:13;;;;;;;384.52;266.77;;;;;;;24.02;41.06;101334.19;5006865;28;20180;-44
2022/01/05 02:04:43;;;;;;;384.35;271.25;;;;;;;23.98;41.05;101335.88;5006661;28;20050;-44
2022/01/05 02:07:12;;;;;;;378.48;271.77;;;;;;;24.06;40.83;101336.03;5006668;28;20495;-44
2022/01/05 02:09:41;;;;;;;374.33;266.73;;;;;;;24.01;41.25;101333.31;5006778;28;20062;-48
2022/01/05 02:12:10;;;;;;;380.02;269.85;;;;;;;23.94;41.18;101341.88;5006348;28;20026;-43
2022/01/05 02:14:39;;;;;;;375.58;265.80;;;;;;;24.02;41.22;101339.44;5006617;28;20053;-43
2022/01/05 02:17:16;;;;;;;378.63;268.55;;;;;;;24.00;41.04;101338.53;5006925;28;20599;-43
2022/01/05 02:19:44;;;;;;;373.77;262.77;;;;;;;23.97;40.93;101339.38;5005401;28;20040;-46
2022/01/05 02:22:13;;;;;;;381.83;270.33;;;;;;;23.99;40.87;101337.66;5006629;28;20029;-43
2022/01/05 02:24:46;;;;;;;378.55;268.10;;;;;;;23.95;41.30;101341.03;5006323;28;20107;-43
2022/01/05 02:27:19;;;;;;;381.88;266.92;;;;;;;23.93;41.27;101345.34;5006649;28;20095;-45
2022/01/05 02:29:47;;;;;;;377.92;273.38;;;;;;;23.99;40.99;101350.75;5006603;28;20395;-43
2022/01/05 02:32:16;;;;;;;383.60;274.80;;;;;;;23.92;41.21;101359.31;5006496;28;20022;-43
2022/01/05 02:34:47;;;;;;;390.58;276.50;;;;;;;23.85;41.05;101353.06;5004946;28;20497;-44
2022/01/05 02:37:15;;;;;;;387.63;270.23;;;;;;;23.89;41.49;101351.38;5011030;28;20037;-44
2022/01/05 02:39:44;;;;;;;400.58;276.67;;;;;;;23.89;41.17;101352.28;5025893;28;20033;-43
2022/01/05 02:42:12;;;;;;;384.95;271.35;;;;;;;23.88;41.23;101353.13;5025693;28;20029;-45
2022/01/05 02:44:45;;;;;;;384.10;272.77;;;;;;;23.83;41.13;101357.38;5025700;28;20071;-45
2022/01/05 02:47:14;;;;;;;393.83;274.77;;;;;;;23.86;41.40;101361.78;5024625;28;20029;-43
2022/01/05 02:49:43;;;;;;;393.33;273.10;;;;;;;23.87;41.47;101364.47;5021143;28;20030;-44
2022/01/05 02:52:11;;;;;;;387.38;274.30;;;;;;;23.86;41.01;101369.66;5005340;28;20379;-49
2022/01/05 02:54:40;;;;;;;388.08;276.10;;;;;;;23.88;41.11;101375.81;5004914;28;20064;-43
2022/01/05 02:57:09;;;;;;;391.75;273.67;;;;;;;23.88;41.28;101386.28;5005210;28;20036;-43
2022/01/05 02:59:37;;;;;;;389.63;278.10;;;;;;;23.87;41.17;101381.91;5005937;28;20668;-43
2022/01/05 03:02:06;;;;;;;386.83;275.05;;;;;;;23.86;41.41;101378.41;5006084;28;20026;-44
2022/01/05 03:04:34;;;;;;;385.48;272.73;;;;;;;23.87;41.30;101379.28;5005348;28;20049;-43
2022/01/05 03:07:03;;;;;;;384.25;271.08;;;;;;;23.87;41.31;101379.28;5005441;28;20084;-46
2022/01/05 03:09:31;;;;;;;386.95;274.05;;;;;;;23.90;40.93;101376.72;5005644;28;20018;-44
2022/01/05 03:12:00;;;;;;;384.45;275.65;;;;;;;23.94;40.95;101383.81;5005470;28;21271;-44
2022/01/05 03:14:28;;;;;;;383.35;270.35;;;;;;;23.92;41.20;101377.66;5005658;28;20168;-46
2022/01/05 03:16:57;;;;;;;393.67;274.02;;;;;;;23.83;41.11;101370.50;5005614;28;20068;-43
2022/01/05 03:19:25;;;;;;;376.88;267.23;;;;;;;23.89;41.22;101375.88;5005744;28;20036;-43
2022/01/05 03:21:54;;;;;;;377.63;270.83;;;;;;;23.93;40.75;101376.81;5005275;28;20026;-43
2022/01/05 03:24:22;;;;;;;375.83;268.70;;;;;;;23.80;40.91;101376.56;5004532;28;20034;-43
2022/01/05 03:26:50;;;;;;;379.20;265.83;;;;;;;23.87;40.79;101382.81;5003645;28;20065;-43
2022/01/05 03:29:19;;;;;;;381.27;267.85;;;;;;;23.84;41.00;101377.50;5005278;28;20530;-44
2022/01/05 03:31:46;;;;;;;387.70;269.80;;;;;;;23.80;41.12;101379.19;5004989;28;20026;-43
2022/01/05 03:34:18;;;;;;;377.92;271.30;;;;;;;23.78;40.91;101382.59;5004910;28;20120;-43
2022/01/05 03:36:47;;;;;;;384.63;269.88;;;;;;;23.76;40.97;101379.97;5005402;28;20025;-43
2022/01/05 03:39:16;;;;;;;376.10;267.27;;;;;;;23.73;41.40;101379.03;5005068;28;20951;-43
2022/01/05 03:41:44;;;;;;;384.88;273.67;;;;;;;23.77;40.92;101379.13;5005021;28;20026;-42
2022/01/05 03:44:13;;;;;;;375.60;265.50;;;;;;;23.78;40.73;101379.97;5005078;28;20387;-43
2022/01/05 03:46:42;;;;;;;380.15;269.80;;;;;;;23.74;41.26;101378.19;5004431;28;20041;-43
2022/01/05 03:49:10;;;;;;;369.45;259.38;;;;;;;23.75;41.02;101375.56;5005023;28;21198;-43
2022/01/05 03:51:39;;;;;;;381.88;261.73;;;;;;;23.74;40.96;101373.81;5004895;28;20042;-44
2022/01/05 03:54:07;;;;;;;380.88;269.15;;;;;;;23.76;40.85;101379.06;5005035;28;20061;-43
2022/01/05 03:56:36;;;;;;;389.98;269.05;;;;;;;23.74;41.27;101384.28;5004648;28;20035;-43
2022/01/05 03:59:05;;;;;;;380.63;267.10;;;;;;;23.70;41.07;101390.31;5004365;28;20045;-44
2022/01/05 04:01:33;;;;;;;376.25;263.52;;;;;;;23.72;41.02;101390.34;5004710;28;20750;-44
2022/01/05 04:04:02;;;;;;;389.85;270.45;;;;;;;23.70;41.25;101390.31;5004678;28;20033;-48
2022/01/05 04:06:30;;;;;;;378.48;265.90;;;;;;;23.67;41.17;101399.00;5004658;28;20053;-46
2022/01/05 04:08:59;;;;;;;372.88;262.38;;;;;;;23.75;40.81;101408.72;5004497;28;20037;-44
2022/01/05 04:11:27;;;;;;;393.33;268.08;;;;;;;23.67;41.37;101406.84;5004811;28;20116;-45
2022/01/05 04:13:56;;;;;;;377.65;262.92;;;;;;;23.73;41.10;101416.56;5004514;28;20091;-43
2022/01/05 04:16:24;;;;;;;381.42;264.00;;;;;;;23.63;40.90;101409.38;5004305;28;20116;-44
2022/01/05 04:18:53;;;;;;;370.80;261.10;;;;;;;23.73;41.09;101411.34;5004229;28;20033;-43
2022/01/05 04:21:22;;;;;;;384.25;259.73;;;;;;;23.72;40.94;101403.44;5004502;28;20038;-43
2022/01/05 04:23:50;;;;;;;381.77;264.17;;;;;;;23.74;40.76;101412.22;5004386;28;20033;-49
2022/01/05 04:26:19;;;;;;;394.42;267.63;;;;;;;23.65;40.91;101415.53;5004355;28;20101;-42
2022/01/05 04:28:47;;;;;;;369.90;258.73;;;;;;;23.64;40.89;101421.63;5004219;28;20116;-42
2022/01/05 04:31:16;;;;;;;371.95;261.65;;;;;;;23.65;41.15;101420.78;5003954;28;20052;-42
2022/01/05 04:33:45;;;;;;;377.55;262.33;;;;;;;23.66;40.70;101427.78;5002677;28;20556;-42
2022/01/05 04:36:13;;;;;;;385.90;262.85;;;;;;;23.62;41.28;101429.44;5004155;28;21224;-42
2022/01/05 04:38:42;;;;;;;378.75;263.90;;;;;;;23.61;41.28;101438.13;5004459;28;20473;-46
2022/01/05 04:41:10;;;;;;;378.35;267.80;;;;;;;23.66;40.79;101436.50;5003030;28;20030;-43
2022/01/05 04:43:39;;;;;;;373.50;260.83;;;;;;;23.61;41.09;101435.53;5004377;28;20032;-46
2022/01/05 04:46:07;;;;;;;371.20;261.42;;;;;;;23.56;40.95;101429.31;5004224;28;20072;-43
2022/01/05 04:48:36;;;;;;;355.30;254.55;;;;;;;23.55;41.19;101430.16;5009760;28;20073;-43
2022/01/05 04:51:05;;;;;;;376.65;261.67;;;;;;;23.60;41.08;101432.88;5003733;28;20126;-48
2022/01/05 04:53:33;;;;;;;383.73;261.70;;;;;;;23.51;41.13;101434.44;5003972;28;20112;-43
2022/01/05 04:56:02;;;;;;;379.00;265.33;;;;;;;23.49;41.16;101437.88;5003980;28;20604;-43
2022/01/05 04:58:31;;;;;;;379.10;259.75;;;;;;;23.51;41.27;101441.41;5003802;28;20033;-43
2022/01/05 05:01:00;;;;;;;376.80;263.33;;;;;;;23.51;41.00;101442.28;5004069;28;20041;-43
2022/01/05 05:03:28;;;;;;;380.38;265.35;;;;;;;23.55;40.85;101440.63;5004118;28;20030;-48
2022/01/05 05:05:57;;;;;;;374.42;253.32;;;;;;;23.54;40.83;101448.44;5003673;28;20145;-43
2022/01/05 05:08:25;;;;;;;364.80;258.05;;;;;;;23.52;40.72;101446.66;5002267;28;20480;-45
2022/01/05 05:10:54;;;;;;;372.58;257.42;;;;;;;23.49;41.11;101448.34;5003665;28;20053;-42
2022/01/05 05:13:22;;;;;;;363.80;254.35;;;;;;;23.48;41.25;101451.81;5002311;28;20026;-43
2022/01/05 05:15:51;;;;;;;386.23;268.60;;;;;;;23.54;40.80;101444.09;5004012;28;20029;-43
2022/01/05 05:18:19;;;;;;;375.00;263.08;;;;;;;23.53;40.67;101444.97;5004011;28;21213;-43
2022/01/05 05:20:48;;;;;;;361.17;253.60;;;;;;;23.54;40.87;101446.72;5003647;28;20030;-44
2022/01/05 05:23:17;;;;;;;373.50;258.25;;;;;;;23.51;40.89;101447.53;5002682;28;20040;-47
2022/01/05 05:25:45;;;;;;;367.90;257.95;;;;;;;23.52;40.73;101451.91;5002834;28;20519;-43
2022/01/05 05:28:14;;;;;;;379.90;263.80;;;;;;;23.50;40.84;101453.59;5002251;28;20041;-43
2022/01/05 05:30:43;;;;;;;367.38;252.35;;;;;;;23.43;40.95;101449.09;5003697;28;20034;-43
2022/01/05 05:33:11;;;;;;;381.90;263.85;;;;;;;23.50;41.22;101450.13;5003333;28;20530;-46
2022/01/05 05:35:41;;;;;;;383.83;263.13;;;;;;;23.46;40.96;101443.03;5003737;28;20069;-57
2022/01/05 05:38:11;;;;;;;380.83;265.42;;;;;;;23.43;40.88;101438.63;5003548;28;20048;-43
2022/01/05 05:40:40;;;;;;;378.65;262.08;;;;;;;23.49;40.65;101448.34;5003499;28;20069;-43
2022/01/05 05:43:09;;;;;;;374.88;261.45;;;;;;;23.45;40.78;101447.41;5001816;28;20541;-43
2022/01/05 05:45:38;;;;;;;379.02;261.85;;;;;;;23.46;40.82;101453.50;5001903;28;20032;-43
2022/01/05 05:48:07;;;;;;;375.27;262.02;;;;;;;23.45;40.86;101449.13;5004527;28;20562;-48
2022/01/05 05:50:35;;;;;;;369.30;262.05;;;;;;;23.48;41.01;101452.72;5007099;28;20033;-44
2022/01/05 05:53:04;;;;;;;386.83;261.05;;;;;;;23.47;41.14;101460.50;5007086;28;20045;-42
2022/01/05 05:55:31;;;;;;;378.42;265.00;;;;;;;23.48;40.60;101467.53;5006697;28;20113;-46
2022/01/05 05:58:00;;;;;;;371.48;262.50;;;;;;;23.44;41.18;101461.34;5005667;28;20061;-42
2022/01/05 06:00:31;;;;;;;380.88;267.60;;;;;;;23.42;41.27;101467.38;5006853;28;20038;-44
2022/01/05 06:03:01;;;;;;;378.48;263.75;;;;;;;23.43;40.88;101469.13;5006837;28;20053;-43
2022/01/05 06:05:29;;;;;;;362.98;257.60;;;;;;;23.43;41.15;101469.13;5006084;28;20052;-43
2022/01/05 06:07:58;;;;;;;391.23;265.60;;;;;;;23.40;41.22;101484.81;5006620;28;20041;-43
2022/01/05 06:10:26;;;;;;;371.83;260.13;;;;;;;23.42;41.08;101481.38;5006696;28;20038;-44
2022/01/05 06:12:55;;;;;;;374.80;261.98;;;;;;;23.38;41.12;101481.25;5006750;28;20399;-43
2022/01/05 06:15:24;;;;;;;378.48;261.42;;;;;;;23.40;40.73;101480.44;5006815;28;20033;-43
2022/01/05 06:17:52;;;;;;;371.92;256.95;;;;;;;23.42;40.68;101483.06;5006721;28;20026;-43
2022/01/05 06:20:21;;;;;;;391.10;267.23;;;;;;;23.43;40.88;101487.47;5006359;28;20034;-43
2022/01/05 06:22:49;;;;;;;374.23;261.13;;;;;;;23.43;40.99;101485.75;5005128;28;20448;-43
2022/01/05 06:25:17;;;;;;;380.83;264.13;;;;;;;23.44;41.08;101491.84;5006586;28;20361;-44
2022/01/05 06:27:45;;;;;;;382.75;264.48;;;;;;;23.47;40.47;101486.69;5006564;28;20480;-43
2022/01/05 06:30:14;;;;;;;377.58;258.55;;;;;;;23.42;40.74;101491.84;5006671;28;20029;-44
2022/01/05 06:32:44;;;;;;;375.05;255.88;;;;;;;23.42;40.68;101488.31;5006130;28;20034;-47
2022/01/05 06:35:12;;;;;;;374.10;259.30;;;;;;;23.41;40.82;101487.44;5006235;28;20098;-42
2022/01/05 06:37:41;;;;;;;388.40;263.95;;;;;;;23.40;40.68;101490.03;5006361;28;20032;-42
2022/01/05 06:40:10;;;;;;;380.23;262.88;;;;;;;23.40;40.73;101490.03;5006308;28;20026;-42
2022/01/05 06:42:38;;;;;;;382.63;260.23;;;;;;;23.39;40.90;101497.00;5006062;28;20107;-43
2022/01/05 06:45:07;;;;;;;385.27;264.73;;;;;;;23.40;41.01;101495.28;5005869;28;20076;-44
2022/01/05 06:47:35;;;;;;;375.13;258.10;;;;;;;23.42;41.04;101486.59;5006109;28;20041;-43
2022/01/05 06:50:04;;;;;;;386.73;263.25;;;;;;;23.44;40.77;101486.63;5006409;28;20037;-44
2022/01/05 06:52:32;;;;;;;385.33;263.42;;;;;;;23.46;40.69;101490.16;5006143;28;20038;-44
2022/01/05 06:55:01;;;;;;;375.95;261.13;;;;;;;23.45;40.83;101481.44;5005715;28;20026;-44
2022/01/05 06:57:29;;;;;;;385.73;264.05;;;;;;;23.42;40.69;101488.31;5005808;28;20522;-44
2022/01/05 06:59:58;;;;;;;364.52;254.50;;;;;;;23.42;40.68;101488.31;5006020;28;20037;-42
2022/01/05 07:02:26;;;;;;;376.83;260.92;;;;;;;23.42;40.99;101494.47;5006135;28;20034;-42
2022/01/05 07:04:55;;;;;;;381.58;263.70;;;;;;;23.42;40.89;101497.06;5004224;28;20061;-42
2022/01/05 07:07:23;;;;;;;381.88;263.80;;;;;;;23.39;40.65;101493.50;5005491;28;20364;-47
2022/01/05 07:09:52;;;;;;;380.50;264.27;;;;;;;23.39;40.72;101485.66;5005531;28;20120;-44
2022/01/05 07:12:20;;;;;;;389.98;267.42;;;;;;;23.42;40.95;101497.06;5005476;28;20432;-43
2022/01/05 07:14:49;;;;;;;377.38;260.00;;;;;;;23.41;40.59;101497.06;5005831;28;20026;-42
2022/01/05 07:17:18;;;;;;;391.30;266.05;;;;;;;23.42;40.86;101499.69;5005649;28;20598;-43
2022/01/05 07:19:47;;;;;;;379.42;260.02;;;;;;;23.46;40.49;101496.31;4988200;28;20431;-43
2022/01/05 07:22:15;;;;;;;375.60;260.45;;;;;;;23.44;40.55;101495.38;5005169;28;20026;-43
2022/01/05 07:24:44;;;;;;;373.80;261.38;;;;;;;23.41;40.83;101497.06;5004953;28;20022;-47
2022/01/05 07:27:13;;;;;;;375.30;262.77;;;;;;;23.41;41.08;101497.91;5005195;28;20037;-43
2022/01/05 07:29:41;;;;;;;384.55;262.67;;;;;;;23.40;41.16;101503.13;5005058;28;20076;-43
2022/01/05 07:32:10;;;;;;;379.05;266.10;;;;;;;23.44;40.88;101504.94;5005382;28;20034;-43
2022/01/05 07:34:39;;;;;;;378.95;264.15;;;;;;;23.41;41.10;101516.25;5008133;28;20087;-44
2022/01/05 07:37:07;;;;;;;375.20;261.45;;;;;;;23.43;41.22;101513.66;5013401;28;20470;-42
2022/01/05 07:39:35;;;;;;;392.65;267.65;;;;;;;23.42;40.88;101519.75;5013772;28;20030;-43
2022/01/05 07:42:04;;;;;;;375.33;259.15;;;;;;;23.42;41.35;101518.03;5016945;28;20474;-43
2022/01/05 07:44:33;;;;;;;371.90;262.98;;;;;;;23.41;40.99;101524.09;5016082;28;20230;-47
2022/01/05 07:47:01;;;;;;;378.00;266.02;;;;;;;23.43;40.93;101519.78;5013135;28;20096;-43
2022/01/05 07:49:30;;;;;;;394.80;269.67;;;;;;;23.47;41.24;101524.25;5005291;28;20026;-46
2022/01/05 07:51:58;;;;;;;391.42;269.65;;;;;;;23.43;41.30;101522.41;5004473;28;20128;-43
2022/01/05 07:54:25;;;;;;;386.15;267.00;;;;;;;23.41;41.37;101528.47;5003724;28;20041;-43
2022/01/05 07:56:54;;;;;;;386.35;264.83;;;;;;;23.42;40.95;101524.97;5004320;28;20042;-43
2022/01/05 07:59:22;;;;;;;387.85;268.45;;;;;;;23.40;40.85;101534.56;5004261;28;20487;-43
2022/01/05 08:01:51;;;;;;;383.02;262.38;;;;;;;23.38;40.89;101529.25;5004829;28;20034;-43
2022/01/05 08:04:20;;;;;;;387.75;265.30;;;;;;;23.42;40.78;101532.81;5004338;28;20080;-45
2022/01/05 08:06:48;;;;;;;378.45;257.92;;;;;;;23.40;40.79;101535.41;5010072;28;20037;-47
2022/01/05 08:09:20;;;;;;;392.63;269.95;;;;;;;23.39;40.94;101536.25;5024093;28;20045;-44
2022/01/05 08:11:49;;;;;;;392.88;270.98;;;;;;;23.43;40.88;101537.22;5023605;28;20030;-48
2022/01/05 08:14:18;;;;;;;379.25;262.67;;;;;;;23.41;40.71;101544.19;5024072;28;20120;-50
2022/01/05 08:16:46;;;;;;;377.50;265.05;;;;;;;23.38;41.12;101544.97;5004961;28;20507;-43
2022/01/05 08:19:15;;;;;;;394.00;266.67;;;;;;;23.43;40.70;101548.59;5004071;28;20045;-47
2022/01/05 08:21:43;;;;;;;388.67;268.73;;;;;;;23.43;40.97;101543.34;5003867;28;20042;-43
2022/01/05 08:24:12;;;;;;;382.95;267.55;;;;;;;23.42;40.74;101546.81;5004593;28;20613;-43
2022/01/05 08:26:40;;;;;;;383.92;262.63;;;;;;;23.39;40.59;101551.09;5004095;28;20037;-43
2022/01/05 08:29:09;;;;;;;377.42;255.20;;;;;;;23.37;40.90;101548.44;5002700;28;20530;-43
2022/01/05 08:31:38;;;;;;;376.38;253.48;;;;;;;23.38;40.48;101555.44;5005901;28;20025;-43
2022/01/05 08:34:07;;;;;;;364.00;246.80;;;;;;;23.36;40.37;101557.13;5023556;28;20355;-43
2022/01/05 08:36:35;;;;;;;361.35;248.65;;;;;;;23.34;40.76;101561.44;5023742;28;20029;-43
2022/01/05 08:39:05;;;;;;;363.15;243.20;;;;;;;23.17;40.62;101535.69;5023644;28;20033;-43
2022/01/05 08:41:33;;;;;;;363.48;240.07;;;;;;;23.35;40.05;101565.81;5003707;28;20208;-47
2022/01/05 08:44:01;;;;;;;355.83;241.63;;;;;;;23.33;40.27;101570.16;5004140;28;20087;-43
2022/01/05 08:46:30;;;;;;;349.35;239.70;;;;;;;23.30;39.96;101563.09;5004327;28;20032;-52
2022/01/05 08:48:58;;;;;;;341.45;232.65;;;;;;;23.31;39.82;101572.72;5004240;28;20084;-44
2022/01/05 08:51:27;;;;;;;341.83;236.48;;;;;;;23.34;39.88;101583.28;5003703;28;20092;-42
2022/01/05 08:53:56;;;;;;;350.80;235.27;;;;;;;23.34;39.83;101578.03;5003970;28;20057;-43
2022/01/05 08:56:25;;;;;;;352.65;230.52;;;;;;;23.27;39.75;101570.00;5003919;28;20038;-42
2022/01/05 08:58:53;;;;;;;337.33;236.07;;;;;;;23.28;39.77;101571.78;5004112;28;20041;-42
2022/01/05 09:01:23;;;;;;;350.40;238.23;;;;;;;23.30;39.84;101570.97;5002074;28;20435;-44
2022/01/05 09:03:53;;;;;;;346.88;237.70;;;;;;;23.31;39.81;101574.47;5003796;28;20336;-42
2022/01/05 09:06:22;;;;;;;355.77;240.95;;;;;;;23.29;40.42;101574.41;5003813;28;20050;-42
2022/01/05 09:08:51;;;;;;;360.63;243.40;;;;;;;23.32;39.92;101581.50;5003970;28;20045;-42
2022/01/05 09:11:20;;;;;;;360.98;244.82;;;;;;;23.32;40.44;101577.13;5003618;28;20030;-42
2022/01/05 09:13:49;;;;;;;375.95;245.20;;;;;;;23.33;40.15;101584.13;5003666;28;20034;-42
2022/01/05 09:16:18;;;;;;;368.48;248.35;;;;;;;23.34;40.18;101593.75;5003388;28;20180;-44
2022/01/05 09:18:47;;;;;;;372.45;246.77;;;;;;;23.33;40.20;101586.75;5001698;28;20517;-43
2022/01/05 09:21:15;;;;;;;349.92;241.52;;;;;;;23.30;40.06;101583.19;5003582;28;20061;-43
2022/01/05 09:23:44;;;;;;;363.83;241.55;;;;;;;23.35;40.00;101586.78;5005867;28;20034;-42
2022/01/05 09:26:12;;;;;;;365.98;246.35;;;;;;;23.38;39.99;101589.47;5007355;28;20045;-42
2022/01/05 09:28:44;;;;;;;364.83;248.30;;;;;;;23.38;39.94;101581.63;5007066;28;20030;-43
2022/01/05 09:31:13;;;;;;;365.95;252.80;;;;;;;23.38;39.94;101588.59;5007047;28;20483;-43
2022/01/05 09:33:40;;;;;;;379.75;251.23;;;;;;;23.40;40.13;101592.16;5007355;28;20029;-42
2022/01/05 09:36:22;;;;;;;361.92;249.02;;;;;;;23.36;40.42;101599.91;5007006;28;20041;-42
2022/01/05 09:42:05;;;;;;;363.63;250.48;;;;;;;23.47;40.00;101592.34;5008108;28;20392;-43
2022/01/05 09:44:10;;;;;;;362.25;251.50;;;;;;;23.54;40.14;101592.47;5021861;28;20056;-43
2022/01/05 09:47:01;;;;;;;368.15;249.40;;;;;;;23.54;39.91;101590.75;5025724;28;20091;-43
2022/01/05 09:49:35;;;;;;;364.55;251.18;;;;;;;23.51;40.26;101598.53;5023823;28;20046;-43
2022/01/05 09:52:07;;;;;;;372.60;254.18;;;;;;;23.52;40.11;101595.94;5026398;28;20087;-42
2022/01/05 09:54:37;;;;;;;373.00;259.48;;;;;;;23.51;40.15;101596.78;5026330;28;20040;-43
2022/01/05 09:57:06;;;;;;;377.75;254.02;;;;;;;23.56;40.33;101596.94;5026907;28;20044;-42
2022/01/05 09:59:35;;;;;;;367.33;255.85;;;;;;;23.53;40.45;101604.69;5025759;28;20029;-42
2022/01/05 10:02:05;;;;;;;389.02;257.20;;;;;;;23.52;39.98;101611.66;5026121;28;20029;-42
2022/01/05 10:04:35;;;;;;;380.83;260.27;;;;;;;23.60;40.01;101616.22;5026285;28;20109;-43
2022/01/05 10:07:05;;;;;;;369.98;256.95;;;;;;;23.58;40.01;101618.78;5025880;28;20395;-43
2022/01/05 10:09:34;;;;;;;371.52;256.77;;;;;;;23.60;40.14;101618.84;5024624;28;20479;-42
2022/01/05 10:12:04;;;;;;;362.60;252.05;;;;;;;23.63;39.98;101624.16;5006226;28;20044;-42
2022/01/05 10:14:33;;;;;;;367.15;245.90;;;;;;;23.66;39.81;101634.72;5006676;28;20509;-43
2022/01/05 10:17:07;;;;;;;372.00;255.55;;;;;;;23.66;39.77;101638.19;5006766;28;20036;-44
2022/01/05 10:19:35;;;;;;;377.57;255.50;;;;;;;23.69;39.99;101639.13;5006329;28;20033;-44
2022/01/05 10:22:09;;;;;;;374.60;257.17;;;;;;;23.66;39.87;101643.44;5005955;28;20312;-43
2022/01/05 10:24:46;;;;;;;365.27;252.52;;;;;;;23.63;40.18;101642.50;5004119;28;20049;-42
2022/01/05 10:27:19;;;;;;;359.65;253.27;;;;;;;23.65;40.03;101646.03;5023583;28;20037;-43
2022/01/05 10:29:59;;;;;;;381.00;259.10;;;;;;;23.64;39.83;101652.13;5026047;28;20441;-43
2022/01/05 10:32:30;;;;;;;378.58;258.55;;;;;;;23.66;39.95;101658.28;5025990;28;20168;-43
2022/01/05 10:35:22;;;;;;;369.90;253.20;;;;;;;23.67;40.24;101657.41;5024102;28;20067;-45
2022/01/05 10:38:09;;;;;;;364.40;251.43;;;;;;;23.71;39.88;101669.75;5025732;28;20076;-42
2022/01/05 10:40:58;;;;;;;369.73;257.48;;;;;;;23.73;40.13;101667.19;5024349;28;20033;-42
2022/01/05 10:43:27;;;;;;;360.08;247.70;;;;;;;23.71;39.75;101661.00;5025510;28;20036;-43
2022/01/05 10:45:56;;;;;;;375.88;253.88;;;;;;;23.78;39.88;101660.31;5025836;28;20128;-43
2022/01/05 10:48:25;;;;;;;364.73;251.98;;;;;;;23.75;40.13;101668.06;5024621;28;20026;-43
2022/01/05 10:51:05;;;;;;;361.15;253.25;;;;;;;23.58;40.08;101642.34;5025667;28;20041;-47
2022/01/05 10:53:34;;;;;;;367.85;247.43;;;;;;;23.74;39.74;101669.81;5025804;28;20029;-42
2022/01/05 10:56:02;;;;;;;374.65;249.40;;;;;;;23.80;40.08;101667.38;5025948;28;20030;-43
2022/01/05 10:58:45;;;;;;;356.73;244.95;;;;;;;23.72;39.93;101663.66;5025424;28;20041;-43
2022/01/05 11:04:36;;;;;;;367.20;245.52;;;;;;;23.75;39.80;101661.13;5024023;28;20107;-43
2022/01/05 11:07:05;;;;;;;365.80;251.15;;;;;;;23.74;40.10;101659.34;5025174;28;20030;-43
2022/01/05 11:09:34;;;;;;;366.88;251.55;;;;;;;23.77;40.06;101654.19;5005416;28;20026;-45